RoSS Sea — WDE3122 — position and weather

sailwx.info

Track history (hours):
 
Tides and Currents Weather Stations Pressure Air Temp Water Temp Dewpoint Dewpoint Depression Visibility Wind Speed Wind Dir Waves Ship Positions

RoSS Sea

Owner: Kirby Inland Marine, LP, Houston, TX. More information available from US FCC via Universal Licensing System and Coast Guard Vessel Documentation Center.

Last reported at 2015-Aug-04 10:20 UTC. Time now 2015-Aug-04 11:45 UTC.
Position N 40°56' W 073°54'.

Length 30 m; draft 5 m.

Type: Tow > 200 m length. MMSI: 367334360.

Date/timePositionNaut miles runAvg speedWind from/ knotsBaromVisibWave heightAir tempDewpointWater temp
2015-Aug-04 10:20N 40°56' W 073°54'0 0.0
2015-Aug-04 09:33N 40°56' W 073°54'0 0.0
2015-Aug-04 07:33N 40°56' W 073°54'0 0.0
2015-Aug-04 06:26N 40°56' W 073°54'0 0.0
2015-Aug-04 05:34N 40°56' W 073°54'0 0.0
2015-Aug-04 04:34N 40°56' W 073°54'0 0.0
2015-Aug-04 03:33N 40°56' W 073°54'0 0.0
2015-Aug-04 02:33N 40°56' W 073°54'0 0.0
2015-Aug-04 01:33N 40°56' W 073°54'0 0.1
2015-Aug-04 00:32N 40°56' W 073°54'8 8.6
2015-Aug-03 23:33N 40°48' W 073°59'8 8.3
2015-Aug-03 22:33N 40°40' W 074°03'4 3.6
2015-Aug-03 21:33N 40°39' W 074°07'0 0.0
2015-Aug-03 20:33N 40°39' W 074°07'0 0.0
2015-Aug-03 19:33N 40°39' W 074°07'7 7.5
2015-Aug-03 18:33N 40°42' W 073°58'0 0.1
2015-Aug-03 17:33N 40°42' W 073°58'0 0.1
2015-Aug-03 16:34N 40°42' W 073°58'6 6.3
2015-Aug-03 15:33N 40°39' W 074°06'3 3.2
2015-Aug-03 14:28N 40°39' W 074°10'0 0.1
2015-Aug-03 13:33N 40°39' W 074°10'0 0.0
2015-Aug-03 12:33N 40°39' W 074°10'7 6.8
2015-Aug-03 11:33N 40°42' W 074°02'1211.9
2015-Aug-03 10:33N 40°53' W 073°56'3 2.9
2015-Aug-03 09:26N 40°56' W 073°54'0 0.0
2015-Aug-03 08:27N 40°56' W 073°54'0 0.0
2015-Aug-03 06:33N 40°56' W 073°54'0 0.0
2015-Aug-03 05:32N 40°56' W 073°54'0 0.0
2015-Aug-03 04:17N 40°56' W 073°54'0 0.0
2015-Aug-03 03:33N 40°56' W 073°54'0 0.0
2015-Aug-03 02:33N 40°56' W 073°54'0 0.0
2015-Aug-03 01:24N 40°56' W 073°54'0 0.0
2015-Aug-03 00:33N 40°56' W 073°54'0 0.0
2015-Aug-02 21:21N 40°56' W 073°54'0 0.0
2015-Aug-02 20:33N 40°56' W 073°54'0 0.0
2015-Aug-02 19:20N 40°56' W 073°54'0 0.0
2015-Aug-02 18:27N 40°56' W 073°54'0 0.0
2015-Aug-02 14:20N 40°56' W 073°54'0 0.0
2015-Aug-02 13:33N 40°56' W 073°54'0 0.0
2015-Aug-02 12:33N 40°56' W 073°54'0 0.0
2015-Aug-02 11:29N 40°56' W 073°54'0 0.0
2015-Aug-02 10:33N 40°56' W 073°54'0 0.0
2015-Aug-02 09:33N 40°56' W 073°54'0 0.0
2015-Aug-02 08:30N 40°56' W 073°54'0 0.0
2015-Aug-02 07:32N 40°56' W 073°54'0 0.0
2015-Aug-02 06:32N 40°56' W 073°54'0 0.0
2015-Aug-02 05:33N 40°56' W 073°54'0 0.0
2015-Aug-02 04:33N 40°56' W 073°54'0 0.0
2015-Aug-02 03:33N 40°56' W 073°54'0 0.0
2015-Aug-02 02:31N 40°56' W 073°54'0 0.0
2015-Aug-01 23:32N 40°56' W 073°54'0 0.0
2015-Aug-01 22:33N 40°56' W 073°54'0 0.0
2015-Aug-01 21:17N 40°56' W 073°54'0 0.0
2015-Aug-01 20:30N 40°56' W 073°54'0 0.0
2015-Aug-01 19:32N 40°56' W 073°54'0 0.0
2015-Aug-01 11:29N 40°56' W 073°54'0 0.0
2015-Aug-01 10:05N 40°56' W 073°54'0 0.0
2015-Aug-01 09:29N 40°56' W 073°54'0 0.0
2015-Aug-01 08:33N 40°56' W 073°54'0 0.0
2015-Aug-01 07:33N 40°56' W 073°54'0 0.0
2015-Aug-01 06:33N 40°56' W 073°54'0 0.0
2015-Aug-01 05:33N 40°56' W 073°54'0 0.0
2015-Aug-01 01:29N 40°56' W 073°54'0 0.0
2015-Aug-01 00:33N 40°56' W 073°54'0 0.0
2015-Jul-31 23:30N 40°56' W 073°54'0 0.0
2015-Jul-31 21:09N 40°56' W 073°54'0 0.0
2015-Jul-31 20:30N 40°56' W 073°54'0 0.0
2015-Jul-31 19:33N 40°56' W 073°54'0 0.0
2015-Jul-31 18:27N 40°56' W 073°54'0 0.0
2015-Jul-31 16:29N 40°56' W 073°54'0 0.0
2015-Jul-31 14:29N 40°56' W 073°54'0 0.0
2015-Jul-31 12:26N 40°56' W 073°54'0 0.0
2015-Jul-31 11:33N 40°56' W 073°54'0 0.0
2015-Jul-31 10:33N 40°56' W 073°54'0 0.0
2015-Jul-31 09:33N 40°56' W 073°54'0 0.0
2015-Jul-31 08:33N 40°56' W 073°54'0 0.0
2015-Jul-31 07:33N 40°56' W 073°54'0 0.0
2015-Jul-31 06:33N 40°56' W 073°54'0 0.0
2015-Jul-31 05:32N 40°56' W 073°54'0 0.0
2015-Jul-31 04:30N 40°56' W 073°54'0 0.0
2015-Jul-31 03:33N 40°56' W 073°54'0 0.0
2015-Jul-31 02:21N 40°56' W 073°54'0 0.0
2015-Jul-31 00:10N 40°56' W 073°54'0 0.0
2015-Jul-30 23:12N 40°56' W 073°54'0 0.0
2015-Jul-30 22:33N 40°56' W 073°54'0 0.1
2015-Jul-30 18:33N 40°56' W 073°55'0 0.0
2015-Jul-30 16:29N 40°56' W 073°55'0 0.2
2015-Jul-30 15:28N 40°56' W 073°55'0 0.1
2015-Jul-30 14:22N 40°56' W 073°55'3 4.0
2015-Jul-30 13:32N 40°53' W 073°56'8 8.0
2015-Jul-30 12:33N 40°46' W 074°00'8 7.7
2015-Jul-30 11:33N 40°39' W 074°03'4 4.3
2015-Jul-30 10:33N 40°35' W 074°02'5 5.4
2015-Jul-30 09:33N 40°30' W 073°57'26 5.3
2015-Jul-30 04:33N 40°07' W 073°42'12 5.7
2015-Jul-30 02:23N 39°55' W 073°39'5 5.8
2015-Jul-30 01:33N 39°50' W 073°37'5 5.3
2015-Jul-30 00:33N 39°45' W 073°36'6 6.0
2015-Jul-29 23:33N 39°39' W 073°38'6 6.1
2015-Jul-29 22:33N 39°33' W 073°41'6 6.3
2015-Jul-29 21:33N 39°27' W 073°43'7 6.4
2015-Jul-29 20:26N 39°21' W 073°46'6 6.1
2015-Jul-29 19:32N 39°15' W 073°48'6 5.9
2015-Jul-29 18:32N 39°10' W 073°51'6 5.7
2015-Jul-29 17:31N 39°04' W 073°53'12 5.8
2015-Jul-29 15:26N 38°53' W 073°57'51 5.8
2015-Jul-29 06:33N 38°03' W 074°12'6 6.0
2015-Jul-29 05:33N 37°57' W 074°14'8 5.9
2015-Jul-29 04:14N 37°49' W 074°15'4 6.1
2015-Jul-29 03:33N 37°45' W 074°16'6 6.2
2015-Jul-29 02:33N 37°39' W 074°18'  
Track history (hours):
 
Tides and Currents Weather Stations Pressure Air Temp Water Temp Dewpoint Dewpoint Depression Visibility Wind Speed Wind Dir Waves Ship Positions

RoSS Sea

Owner: Kirby Inland Marine, LP, Houston, TX. More information available from US FCC via Universal Licensing System and Coast Guard Vessel Documentation Center.

Last reported at 2015-Aug-04 10:20 UTC. Time now 2015-Aug-04 11:45 UTC.
Position N 40°56' W 073°54'.

Length 30 m; draft 5 m.

Type: Tow > 200 m length. MMSI: 367334360.

Date/timePositionNaut miles runAvg speedWind from/ knotsBaromVisibWave heightAir tempDewpointWater temp
2015-Aug-04 10:20N 40°56' W 073°54'0 0.0
2015-Aug-04 09:33N 40°56' W 073°54'0 0.0
2015-Aug-04 07:33N 40°56' W 073°54'0 0.0
2015-Aug-04 06:26N 40°56' W 073°54'0 0.0
2015-Aug-04 05:34N 40°56' W 073°54'0 0.0
2015-Aug-04 04:34N 40°56' W 073°54'0 0.0
2015-Aug-04 03:33N 40°56' W 073°54'0 0.0
2015-Aug-04 02:33N 40°56' W 073°54'0 0.0
2015-Aug-04 01:33N 40°56' W 073°54'0 0.1
2015-Aug-04 00:32N 40°56' W 073°54'8 8.6
2015-Aug-03 23:33N 40°48' W 073°59'8 8.3
2015-Aug-03 22:33N 40°40' W 074°03'4 3.6
2015-Aug-03 21:33N 40°39' W 074°07'0 0.0
2015-Aug-03 20:33N 40°39' W 074°07'0 0.0
2015-Aug-03 19:33N 40°39' W 074°07'7 7.5
2015-Aug-03 18:33N 40°42' W 073°58'0 0.1
2015-Aug-03 17:33N 40°42' W 073°58'0 0.1
2015-Aug-03 16:34N 40°42' W 073°58'6 6.3
2015-Aug-03 15:33N 40°39' W 074°06'3 3.2
2015-Aug-03 14:28N 40°39' W 074°10'0 0.1
2015-Aug-03 13:33N 40°39' W 074°10'0 0.0
2015-Aug-03 12:33N 40°39' W 074°10'7 6.8
2015-Aug-03 11:33N 40°42' W 074°02'1211.9
2015-Aug-03 10:33N 40°53' W 073°56'3 2.9
2015-Aug-03 09:26N 40°56' W 073°54'0 0.0
2015-Aug-03 08:27N 40°56' W 073°54'0 0.0
2015-Aug-03 06:33N 40°56' W 073°54'0 0.0
2015-Aug-03 05:32N 40°56' W 073°54'0 0.0
2015-Aug-03 04:17N 40°56' W 073°54'0 0.0
2015-Aug-03 03:33N 40°56' W 073°54'0 0.0
2015-Aug-03 02:33N 40°56' W 073°54'0 0.0
2015-Aug-03 01:24N 40°56' W 073°54'0 0.0
2015-Aug-03 00:33N 40°56' W 073°54'0 0.0
2015-Aug-02 21:21N 40°56' W 073°54'0 0.0
2015-Aug-02 20:33N 40°56' W 073°54'0 0.0
2015-Aug-02 19:20N 40°56' W 073°54'0 0.0
2015-Aug-02 18:27N 40°56' W 073°54'0 0.0
2015-Aug-02 14:20N 40°56' W 073°54'0 0.0
2015-Aug-02 13:33N 40°56' W 073°54'0 0.0
2015-Aug-02 12:33N 40°56' W 073°54'0 0.0
2015-Aug-02 11:29N 40°56' W 073°54'0 0.0
2015-Aug-02 10:33N 40°56' W 073°54'0 0.0
2015-Aug-02 09:33N 40°56' W 073°54'0 0.0
2015-Aug-02 08:30N 40°56' W 073°54'0 0.0
2015-Aug-02 07:32N 40°56' W 073°54'0 0.0
2015-Aug-02 06:32N 40°56' W 073°54'0 0.0
2015-Aug-02 05:33N 40°56' W 073°54'0 0.0
2015-Aug-02 04:33N 40°56' W 073°54'0 0.0
2015-Aug-02 03:33N 40°56' W 073°54'0 0.0
2015-Aug-02 02:31N 40°56' W 073°54'0 0.0
2015-Aug-01 23:32N 40°56' W 073°54'0 0.0
2015-Aug-01 22:33N 40°56' W 073°54'0 0.0
2015-Aug-01 21:17N 40°56' W 073°54'0 0.0
2015-Aug-01 20:30N 40°56' W 073°54'0 0.0
2015-Aug-01 19:32N 40°56' W 073°54'0 0.0
2015-Aug-01 11:29N 40°56' W 073°54'0 0.0
2015-Aug-01 10:05N 40°56' W 073°54'0 0.0
2015-Aug-01 09:29N 40°56' W 073°54'0 0.0
2015-Aug-01 08:33N 40°56' W 073°54'0 0.0
2015-Aug-01 07:33N 40°56' W 073°54'0 0.0
2015-Aug-01 06:33N 40°56' W 073°54'0 0.0
2015-Aug-01 05:33N 40°56' W 073°54'0 0.0
2015-Aug-01 01:29N 40°56' W 073°54'0 0.0
2015-Aug-01 00:33N 40°56' W 073°54'0 0.0
2015-Jul-31 23:30N 40°56' W 073°54'0 0.0
2015-Jul-31 21:09N 40°56' W 073°54'0 0.0
2015-Jul-31 20:30N 40°56' W 073°54'0 0.0
2015-Jul-31 19:33N 40°56' W 073°54'0 0.0
2015-Jul-31 18:27N 40°56' W 073°54'0 0.0
2015-Jul-31 16:29N 40°56' W 073°54'0 0.0
2015-Jul-31 14:29N 40°56' W 073°54'0 0.0
2015-Jul-31 12:26N 40°56' W 073°54'0 0.0
2015-Jul-31 11:33N 40°56' W 073°54'0 0.0
2015-Jul-31 10:33N 40°56' W 073°54'0 0.0
2015-Jul-31 09:33N 40°56' W 073°54'0 0.0
2015-Jul-31 08:33N 40°56' W 073°54'0 0.0
2015-Jul-31 07:33N 40°56' W 073°54'0 0.0
2015-Jul-31 06:33N 40°56' W 073°54'0 0.0
2015-Jul-31 05:32N 40°56' W 073°54'0 0.0
2015-Jul-31 04:30N 40°56' W 073°54'0 0.0
2015-Jul-31 03:33N 40°56' W 073°54'0 0.0
2015-Jul-31 02:21N 40°56' W 073°54'0 0.0
2015-Jul-31 00:10N 40°56' W 073°54'0 0.0
2015-Jul-30 23:12N 40°56' W 073°54'0 0.0
2015-Jul-30 22:33N 40°56' W 073°54'0 0.1
2015-Jul-30 18:33N 40°56' W 073°55'0 0.0
2015-Jul-30 16:29N 40°56' W 073°55'0 0.2
2015-Jul-30 15:28N 40°56' W 073°55'0 0.1
2015-Jul-30 14:22N 40°56' W 073°55'3 4.0
2015-Jul-30 13:32N 40°53' W 073°56'8 8.0
2015-Jul-30 12:33N 40°46' W 074°00'8 7.7
2015-Jul-30 11:33N 40°39' W 074°03'4 4.3
2015-Jul-30 10:33N 40°35' W 074°02'5 5.4
2015-Jul-30 09:33N 40°30' W 073°57'26 5.3
2015-Jul-30 04:33N 40°07' W 073°42'12 5.7
2015-Jul-30 02:23N 39°55' W 073°39'5 5.8
2015-Jul-30 01:33N 39°50' W 073°37'5 5.3
2015-Jul-30 00:33N 39°45' W 073°36'6 6.0
2015-Jul-29 23:33N 39°39' W 073°38'6 6.1
2015-Jul-29 22:33N 39°33' W 073°41'6 6.3
2015-Jul-29 21:33N 39°27' W 073°43'7 6.4
2015-Jul-29 20:26N 39°21' W 073°46'6 6.1
2015-Jul-29 19:32N 39°15' W 073°48'6 5.9
2015-Jul-29 18:32N 39°10' W 073°51'6 5.7
2015-Jul-29 17:31N 39°04' W 073°53'12 5.8
2015-Jul-29 15:26N 38°53' W 073°57'51 5.8
2015-Jul-29 06:33N 38°03' W 074°12'6 6.0
2015-Jul-29 05:33N 37°57' W 074°14'8 5.9
2015-Jul-29 04:14N 37°49' W 074°15'4 6.1
2015-Jul-29 03:33N 37°45' W 074°16'6 6.2
2015-Jul-29 02:33N 37°39' W 074°18'  

Dump ship's entire track history